createdAt,value
2018-07-09T00:00:04.523Z,0.00
2018-07-09T00:01:04.526Z,0.00
2018-07-09T00:02:04.524Z,0.00
2018-07-09T00:03:04.528Z,0.00
2018-07-09T00:04:04.533Z,0.00
2018-07-09T00:05:04.534Z,0.00
2018-07-09T00:06:04.533Z,0.00
2018-07-09T00:07:04.537Z,0.00
2018-07-09T00:08:04.543Z,0.00
2018-07-09T00:09:04.542Z,0.00
2018-07-09T00:10:04.545Z,0.00
2018-07-09T00:11:04.543Z,0.00
2018-07-09T00:12:04.546Z,0.00
2018-07-09T00:13:04.549Z,0.00
2018-07-09T00:14:04.547Z,0.00
2018-07-09T00:15:04.552Z,0.00
2018-07-09T00:16:04.554Z,0.00
2018-07-09T00:17:04.551Z,0.00
2018-07-09T00:18:04.557Z,0.00
2018-07-09T00:19:04.557Z,0.00
2018-07-09T00:20:04.559Z,0.00
2018-07-09T00:21:04.559Z,0.00
2018-07-09T00:22:04.564Z,0.00
2018-07-09T00:23:04.564Z,0.00
2018-07-09T00:24:04.565Z,0.00
2018-07-09T00:25:04.568Z,0.00
2018-07-09T00:26:04.568Z,0.00
2018-07-09T00:27:04.570Z,0.00
2018-07-09T00:28:04.569Z,0.00
2018-07-09T00:29:04.576Z,0.00
2018-07-09T00:30:04.578Z,0.00
2018-07-09T00:31:04.578Z,0.00
2018-07-09T00:32:04.580Z,0.00
2018-07-09T00:33:04.580Z,0.00
2018-07-09T00:34:04.579Z,0.00
2018-07-09T00:35:04.586Z,0.00
2018-07-09T00:36:04.586Z,0.00
2018-07-09T00:37:04.588Z,0.00
2018-07-09T00:38:04.585Z,0.00
2018-07-09T00:39:04.598Z,0.00
2018-07-09T00:40:04.590Z,0.00
2018-07-09T00:41:04.597Z,0.00
2018-07-09T00:42:04.593Z,0.00
2018-07-09T00:43:04.596Z,0.00
2018-07-09T00:44:04.593Z,0.00
2018-07-09T00:45:04.597Z,0.00
2018-07-09T00:46:04.600Z,0.00
2018-07-09T00:47:04.600Z,0.00
2018-07-09T00:48:04.603Z,0.00
2018-07-09T00:49:04.607Z,0.00
2018-07-09T00:50:04.611Z,0.00
2018-07-09T00:51:04.711Z,0.00
2018-07-09T00:52:04.609Z,0.00
2018-07-09T00:53:04.609Z,0.00
2018-07-09T00:54:04.610Z,0.00
2018-07-09T00:55:04.613Z,0.00
2018-07-09T00:56:04.611Z,0.00
2018-07-09T00:57:04.611Z,0.00
2018-07-09T00:58:04.618Z,0.00
2018-07-09T00:59:04.617Z,0.00
2018-07-09T01:00:04.619Z,0.00
2018-07-09T01:01:04.620Z,0.00
2018-07-09T01:02:04.621Z,0.00
2018-07-09T01:03:04.629Z,0.00
2018-07-09T01:04:04.622Z,0.00
2018-07-09T01:05:04.625Z,0.00
2018-07-09T01:06:04.623Z,0.00
2018-07-09T01:07:04.626Z,0.00
2018-07-09T01:08:04.636Z,0.00
2018-07-09T01:09:04.629Z,0.00
2018-07-09T01:10:04.630Z,0.00
2018-07-09T01:11:04.652Z,0.00
2018-07-09T01:12:04.636Z,0.00
2018-07-09T01:13:04.634Z,0.00
2018-07-09T01:14:04.636Z,0.00
2018-07-09T01:15:04.633Z,0.00
2018-07-09T01:16:04.635Z,0.00
2018-07-09T01:17:04.639Z,0.00
2018-07-09T01:18:04.641Z,0.00
2018-07-09T01:19:04.643Z,0.00
2018-07-09T01:20:04.643Z,0.00
2018-07-09T01:21:04.645Z,0.00
2018-07-09T01:22:04.643Z,0.00
2018-07-09T01:23:04.650Z,0.00
2018-07-09T01:24:04.652Z,0.00
2018-07-09T01:25:04.650Z,0.00
2018-07-09T01:26:04.650Z,0.00
2018-07-09T01:27:04.655Z,0.00
2018-07-09T01:28:04.654Z,0.00
2018-07-09T01:29:04.654Z,0.00
2018-07-09T01:30:04.655Z,0.00
2018-07-09T01:31:04.659Z,0.00
2018-07-09T01:32:04.658Z,0.00
2018-07-09T01:33:04.660Z,0.00
2018-07-09T01:34:04.656Z,0.00
2018-07-09T01:35:04.661Z,0.00
2018-07-09T01:36:04.663Z,0.00
2018-07-09T01:37:04.662Z,0.00
2018-07-09T01:38:04.667Z,0.00
2018-07-09T01:39:04.664Z,0.00
2018-07-09T01:40:04.668Z,0.00
2018-07-09T01:41:04.666Z,0.00
2018-07-09T01:42:04.667Z,0.00
2018-07-09T01:43:04.670Z,0.00
2018-07-09T01:44:04.671Z,0.00
2018-07-09T01:45:04.674Z,0.00
2018-07-09T01:46:04.669Z,0.00
2018-07-09T01:47:04.671Z,0.00
2018-07-09T01:48:04.674Z,0.00
2018-07-09T01:49:04.676Z,0.00
2018-07-09T01:50:04.674Z,0.00
2018-07-09T01:51:04.671Z,0.00
2018-07-09T01:52:04.680Z,0.00
2018-07-09T01:53:04.677Z,0.00
2018-07-09T01:54:04.681Z,0.00
2018-07-09T01:55:04.674Z,0.00
2018-07-09T01:56:04.679Z,0.00
2018-07-09T01:57:04.683Z,0.00
2018-07-09T01:58:04.679Z,0.00
2018-07-09T01:59:04.680Z,0.00
2018-07-09T02:00:04.681Z,0.00
2018-07-09T02:01:04.687Z,0.00
2018-07-09T02:02:04.689Z,0.00
2018-07-09T02:03:04.682Z,0.00
2018-07-09T02:04:04.684Z,0.00
2018-07-09T02:05:04.684Z,0.00
2018-07-09T02:06:04.686Z,0.00
2018-07-09T02:07:04.694Z,0.00
2018-07-09T02:08:04.683Z,0.00
2018-07-09T02:09:04.686Z,0.00
2018-07-09T02:10:04.689Z,0.00
2018-07-09T02:11:04.691Z,0.00
2018-07-09T02:12:04.692Z,0.00
2018-07-09T02:13:04.691Z,0.00
2018-07-09T02:14:04.690Z,0.00
2018-07-09T02:15:04.692Z,0.00
2018-07-09T02:16:04.693Z,0.00
2018-07-09T02:17:04.694Z,0.00
2018-07-09T02:18:04.696Z,0.00
2018-07-09T02:19:04.695Z,0.00
2018-07-09T02:20:04.696Z,0.00
2018-07-09T02:21:04.696Z,0.00
2018-07-09T02:22:04.702Z,0.00
2018-07-09T02:23:04.693Z,0.00
2018-07-09T02:24:04.697Z,0.00
2018-07-09T02:25:04.695Z,0.00
2018-07-09T02:26:04.697Z,0.00
2018-07-09T02:27:04.702Z,0.00
2018-07-09T02:28:04.703Z,0.00
2018-07-09T02:29:04.701Z,0.00
2018-07-09T02:30:04.700Z,0.00
2018-07-09T02:31:04.700Z,0.00
2018-07-09T02:32:04.704Z,0.00
2018-07-09T02:33:04.701Z,0.00
2018-07-09T02:34:04.706Z,0.00
2018-07-09T02:35:04.713Z,0.00
2018-07-09T02:36:04.711Z,0.00
2018-07-09T02:37:04.710Z,0.00
2018-07-09T02:38:04.707Z,0.00
2018-07-09T02:39:04.705Z,0.00
2018-07-09T02:40:04.711Z,0.00
2018-07-09T02:41:04.701Z,0.00
2018-07-09T02:42:04.718Z,0.00
2018-07-09T02:43:04.711Z,0.00
2018-07-09T02:44:04.712Z,0.00
2018-07-09T02:45:04.710Z,0.00
2018-07-09T02:46:04.707Z,0.00
2018-07-09T02:47:04.712Z,0.00
2018-07-09T02:48:04.710Z,0.00
2018-07-09T02:49:04.725Z,0.00
2018-07-09T02:50:04.722Z,5.63
2018-07-09T02:51:04.716Z,5.63
2018-07-09T02:52:04.712Z,5.63
2018-07-09T02:53:04.712Z,5.63
2018-07-09T02:54:04.712Z,5.63
2018-07-09T02:55:04.711Z,5.63
2018-07-09T02:56:04.716Z,5.63
2018-07-09T02:57:04.715Z,5.63
2018-07-09T02:58:04.710Z,5.63
2018-07-09T02:59:04.711Z,5.63
2018-07-09T03:00:04.716Z,5.63
2018-07-09T03:01:04.866Z,11.25
2018-07-09T03:02:04.711Z,11.25
2018-07-09T03:03:04.713Z,11.25
2018-07-09T03:04:04.720Z,11.25
2018-07-09T03:05:04.715Z,11.25
2018-07-09T03:06:04.723Z,11.25
2018-07-09T03:07:04.719Z,11.25
2018-07-09T03:08:04.718Z,11.25
2018-07-09T03:09:04.716Z,16.88
2018-07-09T03:10:04.716Z,16.88
2018-07-09T03:11:04.717Z,16.88
2018-07-09T03:12:04.716Z,16.88
2018-07-09T03:13:04.720Z,16.88
2018-07-09T03:14:04.714Z,16.88
2018-07-09T03:15:04.717Z,22.50
2018-07-09T03:16:04.717Z,22.50
2018-07-09T03:17:04.720Z,22.50
2018-07-09T03:18:04.714Z,22.50
2018-07-09T03:19:04.720Z,28.13
2018-07-09T03:20:04.715Z,28.13
2018-07-09T03:21:04.718Z,28.13
2018-07-09T03:22:04.719Z,28.13
2018-07-09T03:23:04.724Z,33.75
2018-07-09T03:24:04.719Z,33.75
2018-07-09T03:25:04.718Z,45.00
2018-07-09T03:26:04.718Z,50.63
2018-07-09T03:27:04.719Z,45.00
2018-07-09T03:28:04.721Z,45.00
2018-07-09T03:29:04.716Z,45.00
2018-07-09T03:30:04.720Z,50.63
2018-07-09T03:31:04.721Z,50.63
2018-07-09T03:32:04.721Z,50.63
2018-07-09T03:33:04.719Z,50.63
2018-07-09T03:34:04.722Z,50.63
2018-07-09T03:35:04.720Z,50.63
2018-07-09T03:36:04.722Z,50.63
2018-07-09T03:37:04.723Z,56.25
2018-07-09T03:38:04.724Z,67.50
2018-07-09T03:39:04.722Z,56.25
2018-07-09T03:40:04.725Z,56.25
2018-07-09T03:41:04.724Z,56.25
2018-07-09T03:42:04.724Z,61.88
2018-07-09T03:43:04.723Z,90.00
2018-07-09T03:44:04.724Z,84.38
2018-07-09T03:45:04.724Z,73.13
2018-07-09T03:46:04.724Z,118.13
2018-07-09T03:47:04.725Z,101.25
2018-07-09T03:48:04.733Z,140.63
2018-07-09T03:49:04.727Z,146.25
2018-07-09T03:50:04.728Z,163.13
2018-07-09T03:51:04.727Z,174.38
2018-07-09T03:52:04.727Z,180.00
2018-07-09T03:53:04.729Z,185.63
2018-07-09T03:54:04.728Z,191.25
2018-07-09T03:55:04.731Z,196.88
2018-07-09T03:56:04.734Z,202.50
2018-07-09T03:57:04.729Z,208.13
2018-07-09T03:58:04.729Z,208.13
2018-07-09T03:59:04.730Z,213.75
2018-07-09T04:00:04.730Z,219.38
2018-07-09T04:01:04.732Z,219.38
2018-07-09T04:02:04.730Z,219.38
2018-07-09T04:03:04.734Z,219.38
2018-07-09T04:04:04.736Z,225.00
2018-07-09T04:05:04.735Z,225.00
2018-07-09T04:06:04.736Z,230.63
2018-07-09T04:07:04.736Z,241.88
2018-07-09T04:08:04.743Z,241.88
2018-07-09T04:09:04.740Z,253.13
2018-07-09T04:10:04.740Z,258.75
2018-07-09T04:11:04.741Z,258.75
2018-07-09T04:12:04.746Z,264.38
2018-07-09T04:13:04.745Z,270.00
2018-07-09T04:14:04.747Z,275.63
2018-07-09T04:15:04.747Z,281.25
2018-07-09T04:16:04.749Z,286.88
2018-07-09T04:17:04.752Z,286.88
2018-07-09T04:18:04.753Z,298.13
2018-07-09T04:19:04.753Z,303.75
2018-07-09T04:20:04.755Z,303.75
2018-07-09T04:21:04.755Z,303.75
2018-07-09T04:22:04.760Z,320.63
2018-07-09T04:23:04.760Z,315.00
2018-07-09T04:24:04.762Z,315.00
2018-07-09T04:25:04.765Z,326.25
2018-07-09T04:26:04.765Z,320.63
2018-07-09T04:27:04.770Z,320.63
2018-07-09T04:28:04.770Z,315.00
2018-07-09T04:29:04.771Z,326.25
2018-07-09T04:30:04.772Z,331.88
2018-07-09T04:31:04.773Z,326.25
2018-07-09T04:32:04.777Z,337.50
2018-07-09T04:33:04.784Z,343.13
2018-07-09T04:34:04.797Z,354.38
2018-07-09T04:35:04.784Z,376.88
2018-07-09T04:36:04.785Z,388.13
2018-07-09T04:37:04.788Z,382.50
2018-07-09T04:38:04.798Z,376.88
2018-07-09T04:39:04.794Z,382.50
2018-07-09T04:40:04.794Z,393.75
2018-07-09T04:41:04.791Z,399.38
2018-07-09T04:42:04.795Z,399.38
2018-07-09T04:43:04.803Z,388.13
2018-07-09T04:44:04.804Z,399.38
2018-07-09T04:45:04.806Z,427.50
2018-07-09T04:46:04.805Z,438.75
2018-07-09T04:47:04.811Z,433.13
2018-07-09T04:48:04.812Z,416.25
2018-07-09T04:49:04.816Z,416.25
2018-07-09T04:50:04.817Z,433.13
2018-07-09T04:51:04.818Z,427.50
2018-07-09T04:52:04.823Z,450.00
2018-07-09T04:53:04.824Z,433.13
2018-07-09T04:54:04.823Z,455.63
2018-07-09T04:55:04.830Z,455.63
2018-07-09T04:56:04.833Z,444.38
2018-07-09T04:57:04.837Z,438.75
2018-07-09T04:58:04.836Z,427.50
2018-07-09T04:59:04.839Z,427.50
2018-07-09T05:00:04.842Z,455.63
2018-07-09T05:01:04.844Z,466.88
2018-07-09T05:02:04.855Z,455.63
2018-07-09T05:03:04.853Z,427.50
2018-07-09T05:04:04.855Z,450.00
2018-07-09T05:05:04.854Z,410.63
2018-07-09T05:06:04.854Z,438.75
2018-07-09T05:07:04.860Z,427.50
2018-07-09T05:08:04.863Z,416.25
2018-07-09T05:09:04.867Z,438.75
2018-07-09T05:10:04.867Z,241.88
2018-07-09T05:11:04.868Z,247.50
2018-07-09T05:12:04.872Z,303.75
2018-07-09T05:13:04.898Z,225.00
2018-07-09T05:14:04.876Z,219.38
2018-07-09T05:15:04.882Z,225.00
2018-07-09T05:16:04.885Z,444.38
2018-07-09T05:17:04.887Z,433.13
2018-07-09T05:18:04.887Z,416.25
2018-07-09T05:19:04.891Z,371.25
2018-07-09T05:20:04.895Z,376.88
2018-07-09T05:21:04.903Z,421.88
2018-07-09T05:22:04.899Z,438.75
2018-07-09T05:23:04.902Z,438.75
2018-07-09T05:24:04.907Z,405.00
2018-07-09T05:25:04.905Z,360.00
2018-07-09T05:26:04.908Z,236.25
2018-07-09T05:27:04.919Z,241.88
2018-07-09T05:28:04.919Z,309.38
2018-07-09T05:29:04.918Z,309.38
2018-07-09T05:30:04.916Z,331.88
2018-07-09T05:31:04.919Z,292.50
2018-07-09T05:32:04.924Z,466.88
2018-07-09T05:33:04.933Z,506.25
2018-07-09T05:34:04.931Z,466.88
2018-07-09T05:35:04.939Z,303.75
2018-07-09T05:36:04.963Z,315.00
2018-07-09T05:37:04.934Z,410.63
2018-07-09T05:38:04.943Z,264.38
2018-07-09T05:39:04.943Z,236.25
2018-07-09T05:40:04.996Z,236.25
2018-07-09T05:41:04.952Z,444.38
2018-07-09T05:42:04.955Z,427.50
2018-07-09T05:43:04.958Z,461.25
2018-07-09T05:44:04.960Z,483.75
2018-07-09T05:45:04.962Z,292.50
2018-07-09T05:46:04.967Z,472.50
2018-07-09T05:47:05.036Z,461.25
2018-07-09T05:48:04.971Z,461.25
2018-07-09T05:49:04.975Z,466.88
2018-07-09T05:50:04.980Z,472.50
2018-07-09T05:51:04.989Z,466.88
2018-07-09T05:52:04.985Z,466.88
2018-07-09T05:53:04.988Z,472.50
2018-07-09T05:54:04.996Z,466.88
2018-07-09T05:55:04.994Z,438.75
2018-07-09T05:56:04.995Z,461.25
2018-07-09T05:57:05.001Z,478.13
2018-07-09T05:58:05.000Z,483.75
2018-07-09T05:59:05.007Z,489.38
2018-07-09T06:00:05.012Z,483.75
2018-07-09T06:01:05.016Z,495.00
2018-07-09T06:02:05.020Z,500.63
2018-07-09T06:03:05.023Z,500.63
2018-07-09T06:04:05.026Z,506.25
2018-07-09T06:05:05.039Z,511.88
2018-07-09T06:06:05.028Z,517.50
2018-07-09T06:07:05.038Z,528.75
2018-07-09T06:08:05.044Z,534.38
2018-07-09T06:09:05.046Z,540.00
2018-07-09T06:10:05.051Z,556.88
2018-07-09T06:11:05.151Z,579.38
2018-07-09T06:12:05.060Z,618.75
2018-07-09T06:13:05.066Z,641.25
2018-07-09T06:14:05.068Z,686.25
2018-07-09T06:15:05.075Z,748.13
2018-07-09T06:16:05.079Z,1006.88
2018-07-09T06:17:05.086Z,1468.13
2018-07-09T06:18:05.090Z,1890.00
2018-07-09T06:19:05.096Z,1704.38
2018-07-09T06:20:05.101Z,1946.25
2018-07-09T06:21:05.106Z,1850.63
2018-07-09T06:22:05.113Z,2013.75
2018-07-09T06:23:05.117Z,1749.38
2018-07-09T06:24:05.123Z,1901.25
2018-07-09T06:25:05.131Z,2025.00
2018-07-09T06:26:05.135Z,2148.75
2018-07-09T06:27:05.137Z,2261.25
2018-07-09T06:28:05.187Z,2317.50
2018-07-09T06:29:05.155Z,2424.38
2018-07-09T06:30:05.160Z,2463.75
2018-07-09T06:31:05.176Z,2424.38
2018-07-09T06:32:05.182Z,2401.88
2018-07-09T06:33:05.181Z,2373.75
2018-07-09T06:34:05.183Z,2340.00
2018-07-09T06:35:05.196Z,2300.63
2018-07-09T06:36:05.203Z,2317.50
2018-07-09T06:37:05.207Z,1659.38
2018-07-09T06:38:05.213Z,2317.50
2018-07-09T06:39:05.216Z,2385.00
2018-07-09T06:40:05.226Z,2396.25
2018-07-09T06:41:05.236Z,2418.75
2018-07-09T06:42:05.238Z,2424.38
2018-07-09T06:43:05.264Z,2452.50
2018-07-09T06:44:05.253Z,2379.38
2018-07-09T06:45:05.252Z,2317.50
2018-07-09T06:46:05.259Z,2345.63
2018-07-09T06:47:05.269Z,2351.25
2018-07-09T06:48:05.277Z,2435.63
2018-07-09T06:49:05.280Z,2503.13
2018-07-09T06:50:05.337Z,2497.50
2018-07-09T06:51:05.292Z,2514.38
2018-07-09T06:52:05.304Z,2480.63
2018-07-09T06:53:05.309Z,2401.88
2018-07-09T06:54:05.312Z,2323.13
2018-07-09T06:55:05.319Z,2278.13
2018-07-09T06:56:05.326Z,2340.00
2018-07-09T06:57:05.338Z,2441.25
2018-07-09T06:58:05.344Z,2587.50
2018-07-09T06:59:05.347Z,2683.13
2018-07-09T07:00:05.357Z,2705.63
2018-07-09T07:01:05.364Z,2688.75
2018-07-09T07:02:05.367Z,2677.50
2018-07-09T07:03:05.378Z,2688.75
2018-07-09T07:04:05.380Z,2700.00
2018-07-09T07:05:05.391Z,2728.13
2018-07-09T07:06:05.395Z,2643.75
2018-07-09T07:07:05.409Z,2508.75
2018-07-09T07:08:05.415Z,2694.38
2018-07-09T07:09:05.524Z,2778.75
2018-07-09T07:10:05.427Z,2733.75
2018-07-09T07:11:05.431Z,2683.13
2018-07-09T07:12:05.438Z,2745.00
2018-07-09T07:13:05.451Z,2812.50
2018-07-09T07:14:05.458Z,2902.50
2018-07-09T07:15:05.465Z,2941.88
2018-07-09T07:16:05.475Z,2953.13
2018-07-09T07:17:05.477Z,2941.88
2018-07-09T07:18:05.484Z,2868.75
2018-07-09T07:19:05.490Z,2857.50
2018-07-09T07:20:05.498Z,2610.00
2018-07-09T07:21:05.537Z,2503.13
2018-07-09T07:22:05.511Z,2351.25
2018-07-09T07:23:05.518Z,2266.88
2018-07-09T07:24:05.524Z,2351.25
2018-07-09T07:25:05.531Z,2565.00
2018-07-09T07:26:05.539Z,2430.00
2018-07-09T07:27:05.545Z,2548.13
2018-07-09T07:28:05.555Z,2565.00
2018-07-09T07:29:05.560Z,2806.88
2018-07-09T07:30:05.569Z,2964.38
2018-07-09T07:31:05.575Z,3065.63
2018-07-09T07:32:05.579Z,3138.75
2018-07-09T07:33:05.635Z,3178.13
2018-07-09T07:34:05.600Z,3161.25
2018-07-09T07:35:05.600Z,3161.25
2018-07-09T07:36:05.606Z,2295.00
2018-07-09T07:37:05.614Z,1333.13
2018-07-09T07:38:05.621Z,1665.00
2018-07-09T07:39:05.628Z,2238.75
2018-07-09T07:40:05.638Z,2205.00
2018-07-09T07:41:05.643Z,2407.50
2018-07-09T07:42:05.651Z,2334.38
2018-07-09T07:43:05.656Z,2475.00
2018-07-09T07:44:05.663Z,2469.38
2018-07-09T07:45:05.672Z,2407.50
2018-07-09T07:46:05.676Z,2334.38
2018-07-09T07:47:05.687Z,2497.50
2018-07-09T07:48:05.693Z,2581.88
2018-07-09T07:49:05.699Z,2385.00
2018-07-09T07:50:05.719Z,2458.13
2018-07-09T07:51:05.713Z,2497.50
2018-07-09T07:52:05.721Z,2626.88
2018-07-09T07:53:05.728Z,2745.00
2018-07-09T07:54:05.736Z,2711.25
2018-07-09T07:55:05.742Z,3003.75
2018-07-09T07:56:05.749Z,2784.38
2018-07-09T07:57:05.763Z,2756.25
2018-07-09T07:58:05.765Z,2846.25
2018-07-09T07:59:05.771Z,2778.75
2018-07-09T08:00:05.779Z,2930.63
2018-07-09T08:01:05.788Z,3116.25
2018-07-09T08:02:05.793Z,3211.88
2018-07-09T08:03:05.807Z,3493.13
2018-07-09T08:04:05.812Z,3431.25
2018-07-09T08:05:05.818Z,3498.75
2018-07-09T08:06:05.824Z,3498.75
2018-07-09T08:07:05.832Z,3498.75
2018-07-09T08:08:05.841Z,3442.50
2018-07-09T08:09:05.849Z,3369.38
2018-07-09T08:10:05.857Z,3352.50
2018-07-09T08:11:11.072Z,3200.63
2018-07-09T08:12:59.667Z,3442.50
2018-07-09T08:13:28.499Z,3661.88
2018-07-09T08:14:05.895Z,3611.25
2018-07-09T08:15:05.899Z,3538.13
2018-07-09T08:16:05.902Z,3504.38
2018-07-09T08:17:05.918Z,3487.50
2018-07-09T08:18:05.918Z,3459.38
2018-07-09T08:19:05.931Z,3487.50
2018-07-09T08:20:05.944Z,3189.38
2018-07-09T08:21:05.953Z,3487.50
2018-07-09T08:22:05.959Z,3881.25
2018-07-09T08:23:05.969Z,3948.75
2018-07-09T08:24:05.976Z,3746.25
2018-07-09T08:25:06.080Z,3470.63
2018-07-09T08:26:05.995Z,2418.75
2018-07-09T08:27:06.000Z,3588.75
2018-07-09T08:28:06.007Z,3813.75
2018-07-09T08:29:06.018Z,3037.50
2018-07-09T08:30:06.025Z,2975.63
2018-07-09T08:31:06.069Z,2486.25
2018-07-09T08:32:06.051Z,1479.38
2018-07-09T08:33:06.054Z,3886.88
2018-07-09T08:34:06.063Z,3808.13
2018-07-09T08:35:06.076Z,1760.63
2018-07-09T08:36:06.080Z,2565.00
2018-07-09T08:37:06.089Z,3031.88
2018-07-09T08:38:06.101Z,1153.13
2018-07-09T08:39:06.107Z,1586.25
2018-07-09T08:40:06.113Z,1980.00
2018-07-09T08:41:06.124Z,2700.00
2018-07-09T08:42:06.136Z,3836.25
2018-07-09T08:43:06.139Z,2638.13
2018-07-09T08:44:06.151Z,3133.13
2018-07-09T08:45:06.157Z,2773.13
2018-07-09T08:46:06.164Z,3510.00
2018-07-09T08:47:06.179Z,3487.50
2018-07-09T08:48:06.182Z,3476.25
2018-07-09T08:49:06.196Z,3391.88
2018-07-09T08:50:06.204Z,3937.50
2018-07-09T08:51:06.213Z,4336.88
2018-07-09T08:52:06.216Z,4404.38
2018-07-09T08:53:06.225Z,4471.88
2018-07-09T08:54:06.229Z,3982.50
2018-07-09T08:55:06.236Z,4201.88
2018-07-09T08:56:06.251Z,3903.75
2018-07-09T08:57:06.257Z,3639.38
2018-07-09T08:58:06.269Z,3729.38
2018-07-09T08:59:06.279Z,3774.38
2018-07-09T09:00:06.287Z,4066.88
2018-07-09T09:01:06.296Z,4483.13
2018-07-09T09:02:06.303Z,4612.50
2018-07-09T09:03:06.315Z,3481.88
2018-07-09T09:04:06.323Z,1220.63
2018-07-09T09:05:06.332Z,736.88
2018-07-09T09:06:06.339Z,725.63
2018-07-09T09:07:06.358Z,714.38
2018-07-09T09:08:06.365Z,703.13
2018-07-09T09:09:06.370Z,697.50
2018-07-09T09:10:06.428Z,691.88
2018-07-09T09:11:06.412Z,697.50
2018-07-09T09:12:06.399Z,691.88
2018-07-09T09:13:06.409Z,686.25
2018-07-09T09:14:06.415Z,675.00
2018-07-09T09:15:06.424Z,669.38
2018-07-09T09:16:06.432Z,658.13
2018-07-09T09:17:06.439Z,646.88
2018-07-09T09:18:06.448Z,630.00
2018-07-09T09:19:06.454Z,618.75
2018-07-09T09:20:06.460Z,601.88
2018-07-09T09:21:06.468Z,596.25
2018-07-09T09:22:06.477Z,590.63
2018-07-09T09:23:06.482Z,585.00
2018-07-09T09:24:06.493Z,579.38
2018-07-09T09:25:06.496Z,568.13
2018-07-09T09:26:06.507Z,556.88
2018-07-09T09:27:06.510Z,545.63
2018-07-09T09:28:06.521Z,540.00
2018-07-09T09:29:06.527Z,534.38
2018-07-09T09:30:06.541Z,534.38
2018-07-09T09:31:06.540Z,534.38
2018-07-09T09:32:06.542Z,534.38
2018-07-09T09:33:06.550Z,534.38
2018-07-09T09:34:06.556Z,534.38
2018-07-09T09:35:06.560Z,540.00
2018-07-09T09:36:06.569Z,540.00
2018-07-09T09:37:06.573Z,545.63
2018-07-09T09:38:06.580Z,551.25
2018-07-09T09:39:06.585Z,556.88
2018-07-09T09:40:06.592Z,562.50
2018-07-09T09:41:06.596Z,573.75
2018-07-09T09:42:06.604Z,573.75
2018-07-09T09:43:06.664Z,573.75
2018-07-09T09:44:06.617Z,568.13
2018-07-09T09:45:06.620Z,556.88
2018-07-09T09:46:06.626Z,545.63
2018-07-09T09:47:06.634Z,534.38
2018-07-09T09:48:06.635Z,523.13
2018-07-09T09:49:06.646Z,506.25
2018-07-09T09:50:06.644Z,506.25
2018-07-09T09:51:06.654Z,500.63
2018-07-09T09:52:06.658Z,489.38
2018-07-09T09:53:06.662Z,483.75
2018-07-09T09:54:06.661Z,472.50
2018-07-09T09:55:06.696Z,461.25
2018-07-09T09:56:06.676Z,450.00
2018-07-09T09:57:06.681Z,433.13
2018-07-09T09:58:06.686Z,421.88
2018-07-09T09:59:06.694Z,416.25
2018-07-09T10:00:06.697Z,405.00
2018-07-09T10:01:06.703Z,399.38
2018-07-09T10:02:06.705Z,393.75
2018-07-09T10:03:06.709Z,382.50
2018-07-09T10:04:06.717Z,371.25
2018-07-09T10:05:06.720Z,365.63
2018-07-09T10:06:06.728Z,360.00
2018-07-09T10:07:06.730Z,354.38
2018-07-09T10:08:06.741Z,348.75
2018-07-09T10:09:06.747Z,343.13
2018-07-09T10:10:06.742Z,343.13
2018-07-09T10:11:06.756Z,354.38
2018-07-09T10:12:06.766Z,365.63
2018-07-09T10:13:06.754Z,365.63
2018-07-09T10:14:06.760Z,371.25
2018-07-09T10:15:06.763Z,371.25
2018-07-09T10:16:06.768Z,371.25
2018-07-09T10:17:06.771Z,365.63
2018-07-09T10:18:06.774Z,360.00
2018-07-09T10:19:06.778Z,360.00
2018-07-09T10:20:06.783Z,360.00
2018-07-09T10:21:06.791Z,360.00
2018-07-09T10:22:06.792Z,365.63
2018-07-09T10:23:06.882Z,365.63
2018-07-09T10:24:06.800Z,365.63
2018-07-09T10:25:06.805Z,371.25
2018-07-09T10:26:06.804Z,371.25
2018-07-09T10:27:06.814Z,371.25
2018-07-09T10:28:06.818Z,376.88
2018-07-09T10:29:06.820Z,376.88
2018-07-09T10:30:06.824Z,376.88
2018-07-09T10:31:06.828Z,376.88
2018-07-09T10:32:06.835Z,371.25
2018-07-09T10:33:06.839Z,371.25
2018-07-09T10:34:06.845Z,371.25
2018-07-09T10:35:06.846Z,371.25
2018-07-09T10:36:06.853Z,371.25
2018-07-09T10:37:06.854Z,365.63
2018-07-09T10:38:06.854Z,354.38
2018-07-09T10:39:06.861Z,343.13
2018-07-09T10:40:06.860Z,337.50
2018-07-09T10:41:06.869Z,331.88
2018-07-09T10:42:06.871Z,337.50
2018-07-09T10:43:06.876Z,315.00
2018-07-09T10:44:06.881Z,298.13
2018-07-09T10:45:06.887Z,286.88
2018-07-09T10:46:06.889Z,286.88
2018-07-09T10:47:06.929Z,286.88
2018-07-09T10:48:06.896Z,298.13
2018-07-09T10:49:06.907Z,298.13
2018-07-09T10:50:06.911Z,309.38
2018-07-09T10:51:06.912Z,298.13
2018-07-09T10:52:06.912Z,275.63
2018-07-09T10:53:06.916Z,275.63
2018-07-09T10:54:06.921Z,298.13
2018-07-09T10:55:06.993Z,326.25
2018-07-09T10:56:06.932Z,337.50
2018-07-09T10:57:06.931Z,354.38
2018-07-09T10:58:06.935Z,382.50
2018-07-09T10:59:06.940Z,416.25
2018-07-09T11:00:06.947Z,444.38
2018-07-09T11:01:06.949Z,483.75
2018-07-09T11:02:06.952Z,450.00
2018-07-09T11:03:06.956Z,500.63
2018-07-09T11:04:06.955Z,506.25
2018-07-09T11:05:06.962Z,540.00
2018-07-09T11:06:06.966Z,511.88
2018-07-09T11:07:06.972Z,551.25
2018-07-09T11:08:06.978Z,517.50
2018-07-09T11:09:06.990Z,534.38
2018-07-09T11:10:06.984Z,489.38
2018-07-09T11:11:06.996Z,478.13
2018-07-09T11:12:06.992Z,517.50
2018-07-09T11:13:06.997Z,585.00
2018-07-09T11:14:06.998Z,551.25
2018-07-09T11:15:07.006Z,562.50
2018-07-09T11:16:07.010Z,579.38
2018-07-09T11:17:07.018Z,641.25
2018-07-09T11:18:07.017Z,585.00
2018-07-09T11:19:07.022Z,590.63
2018-07-09T11:20:07.028Z,556.88
2018-07-09T11:21:07.034Z,534.38
2018-07-09T11:22:07.040Z,545.63
2018-07-09T11:23:07.039Z,545.63
2018-07-09T11:24:07.044Z,523.13
2018-07-09T11:25:07.051Z,489.38
2018-07-09T11:26:07.057Z,466.88
2018-07-09T11:27:07.056Z,421.88
2018-07-09T11:28:07.068Z,365.63
2018-07-09T11:29:07.071Z,343.13
2018-07-09T11:30:07.092Z,348.75
2018-07-09T11:31:07.097Z,371.25
2018-07-09T11:32:07.089Z,388.13
2018-07-09T11:33:07.088Z,410.63
2018-07-09T11:34:07.093Z,438.75
2018-07-09T11:35:07.096Z,438.75
2018-07-09T11:36:07.147Z,427.50
2018-07-09T11:37:07.108Z,466.88
2018-07-09T11:38:07.112Z,511.88
2018-07-09T11:39:07.114Z,528.75
2018-07-09T11:40:07.120Z,511.88
2018-07-09T11:41:07.124Z,489.38
2018-07-09T11:42:07.137Z,472.50
2018-07-09T11:43:07.134Z,438.75
2018-07-09T11:44:07.141Z,438.75
2018-07-09T11:45:07.157Z,444.38
2018-07-09T11:46:07.151Z,489.38
2018-07-09T11:47:07.152Z,472.50
2018-07-09T11:48:07.150Z,489.38
2018-07-09T11:49:07.160Z,455.63
2018-07-09T11:50:07.163Z,495.00
2018-07-09T11:51:07.173Z,472.50
2018-07-09T11:52:07.214Z,511.88
2018-07-09T11:53:07.182Z,506.25
2018-07-09T11:54:07.192Z,478.13
2018-07-09T11:55:07.188Z,528.75
2018-07-09T11:56:07.192Z,556.88
2018-07-09T11:57:07.197Z,534.38
2018-07-09T11:58:07.205Z,444.38
2018-07-09T11:59:07.202Z,376.88
2018-07-09T12:00:07.211Z,343.13
2018-07-09T12:01:07.216Z,348.75
2018-07-09T12:02:07.220Z,382.50
2018-07-09T12:03:07.225Z,410.63
2018-07-09T12:04:07.229Z,455.63
2018-07-09T12:05:07.235Z,483.75
2018-07-09T12:06:07.238Z,511.88
2018-07-09T12:07:07.243Z,545.63
2018-07-09T12:08:07.250Z,517.50
2018-07-09T12:09:07.251Z,489.38
2018-07-09T12:10:07.257Z,506.25
2018-07-09T12:11:07.261Z,528.75
2018-07-09T12:12:07.266Z,534.38
2018-07-09T12:13:07.272Z,495.00
2018-07-09T12:14:07.273Z,421.88
2018-07-09T12:15:07.279Z,376.88
2018-07-09T12:16:07.288Z,360.00
2018-07-09T12:17:07.294Z,399.38
2018-07-09T12:18:07.298Z,416.25
2018-07-09T12:19:07.296Z,438.75
2018-07-09T12:20:07.303Z,438.75
2018-07-09T12:21:07.308Z,466.88
2018-07-09T12:22:07.312Z,562.50
2018-07-09T12:23:07.316Z,483.75
2018-07-09T12:24:07.323Z,433.13
2018-07-09T12:25:07.324Z,393.75
2018-07-09T12:26:07.328Z,382.50
2018-07-09T12:27:07.387Z,410.63
2018-07-09T12:28:07.340Z,433.13
2018-07-09T12:29:07.395Z,511.88
2018-07-09T12:30:07.347Z,556.88
2018-07-09T12:31:07.353Z,540.00
2018-07-09T12:32:07.358Z,528.75
2018-07-09T12:33:07.359Z,556.88
2018-07-09T12:34:07.362Z,573.75
2018-07-09T12:35:07.364Z,568.13